Time;durP1;ratioP1;P1;durP2;ratioP2;P2;SDS_P1;SDS_P2;PMS_P1;PMS_P2;Temp;Humidity;BMP_temperature;BMP_pressure;BME280_temperature;BME280_humidity;BME280_pressure;Samples;Min_cycle;Max_cycle;Signal;HPM_P1;HPM_P2
2022/03/07 00:02:10;;;;;;;187.57;149.52;;;;;;;13.90;24.21;93827.16;5069896;28;20036;-81
2022/03/07 00:04:36;;;;;;;189.15;150.30;;;;;;;13.87;24.40;93825.34;5052410;28;20094;-80
2022/03/07 00:07:01;;;;;;;187.98;149.23;;;;;;;13.89;24.25;93832.97;5048788;28;20052;-79
2022/03/07 00:09:27;;;;;;;188.15;151.35;;;;;;;13.88;24.57;93832.22;5048562;28;20036;-80
2022/03/07 00:11:53;;;;;;;187.63;148.18;;;;;;;13.87;24.02;93829.97;5066100;28;20094;-80
2022/03/07 00:14:19;;;;;;;189.13;151.10;;;;;;;13.90;24.33;93831.78;5048420;28;20060;-80
2022/03/07 00:16:44;;;;;;;187.45;150.10;;;;;;;13.89;24.38;93836.41;5069161;28;20533;-81
2022/03/07 00:19:10;;;;;;;187.73;149.60;;;;;;;13.88;24.31;93832.22;5050795;28;20040;-80
2022/03/07 00:21:36;;;;;;;188.80;152.38;;;;;;;13.89;24.31;93831.03;5047393;28;20047;-80
2022/03/07 00:24:02;;;;;;;189.55;150.52;;;;;;;13.85;24.21;93825.75;5051633;28;20040;-80
2022/03/07 00:26:28;;;;;;;186.95;150.43;;;;;;;13.88;24.40;93820.72;5049757;28;20099;-80
2022/03/07 00:28:54;;;;;;;191.20;152.93;;;;;;;13.88;24.35;93820.72;5035617;28;20049;-80
2022/03/07 00:31:20;;;;;;;197.00;157.55;;;;;;;13.88;24.35;93818.78;5047847;28;20052;-81
2022/03/07 00:33:47;;;;;;;190.63;153.48;;;;;;;13.87;24.43;93819.22;5065910;28;20058;-80
2022/03/07 00:36:13;;;;;;;187.07;148.90;;;;;;;13.84;24.26;93818.13;5049494;28;20036;-81
2022/03/07 00:38:39;;;;;;;188.35;151.07;;;;;;;13.87;24.35;93825.34;5047700;28;20028;-81
2022/03/07 00:41:04;;;;;;;185.95;148.85;;;;;;;13.84;24.50;93821.56;5048966;28;20048;-81
2022/03/07 00:43:30;;;;;;;186.55;149.13;;;;;;;13.85;24.47;93823.06;5048721;28;20047;-80
2022/03/07 00:45:56;;;;;;;187.32;149.30;;;;;;;13.84;24.75;93824.25;5069929;28;20043;-80
2022/03/07 00:48:22;;;;;;;191.23;151.95;;;;;;;13.83;24.42;93820.06;5066897;28;20063;-80
2022/03/07 00:50:49;;;;;;;186.77;149.95;;;;;;;13.85;24.71;93819.63;5043252;28;20059;-80
2022/03/07 00:53:18;;;;;;;188.68;152.32;;;;;;;13.84;24.27;93826.94;5066529;28;20408;-80
2022/03/07 00:55:44;;;;;;;190.50;151.90;;;;;;;13.85;24.28;93825.75;5065919;28;20102;-80
2022/03/07 00:58:10;;;;;;;188.77;151.75;;;;;;;13.84;24.28;93821.56;5066854;28;20048;-81
2022/03/07 01:00:37;;;;;;;198.75;159.30;;;;;;;13.85;24.49;93822.31;5050146;28;20044;-80
2022/03/07 01:03:04;;;;;;;190.75;151.95;;;;;;;13.85;24.35;93830.38;5051105;28;20050;-80
2022/03/07 01:05:30;;;;;;;190.07;151.68;;;;;;;13.85;24.38;93831.13;5048150;28;20515;-80
2022/03/07 01:07:56;;;;;;;188.48;150.75;;;;;;;13.84;24.59;93821.56;5047917;28;20036;-81
2022/03/07 01:10:22;;;;;;;186.82;149.68;;;;;;;13.87;24.39;93825.34;5068679;28;20418;-80
2022/03/07 01:12:47;;;;;;;192.10;154.80;;;;;;;13.84;24.42;93812.75;5049125;28;20241;-80
2022/03/07 01:15:14;;;;;;;188.95;152.43;;;;;;;13.85;24.48;93823.06;5048502;28;20143;-80
2022/03/07 01:17:40;;;;;;;189.52;152.38;;;;;;;13.84;24.35;93818.13;5065917;28;20052;-80
2022/03/07 01:20:07;;;;;;;189.90;152.57;;;;;;;13.85;24.34;93816.94;5066938;28;20230;-80
2022/03/07 01:22:33;;;;;;;190.38;153.07;;;;;;;13.85;24.52;93819.63;5062711;28;20041;-80
2022/03/07 01:24:58;;;;;;;186.98;150.25;;;;;;;13.83;24.81;93816.63;5067968;28;20124;-81
2022/03/07 01:27:24;;;;;;;188.55;151.75;;;;;;;13.85;24.28;93816.94;5065807;28;20060;-81
2022/03/07 01:29:49;;;;;;;188.00;150.38;;;;;;;13.83;24.49;93817.38;5050031;28;20785;-79
2022/03/07 01:32:15;;;;;;;195.52;156.63;;;;;;;13.84;24.47;93813.50;5050517;28;20127;-80
2022/03/07 01:34:41;;;;;;;192.15;153.40;;;;;;;13.85;24.63;93817.69;5062955;28;20694;-80
2022/03/07 01:37:06;;;;;;;190.30;153.40;;;;;;;13.85;24.66;93815.00;5052571;28;20513;-80
2022/03/07 01:39:32;;;;;;;188.20;150.30;;;;;;;13.86;24.41;93810.38;5059486;28;20041;-80
2022/03/07 01:41:58;;;;;;;190.20;152.45;;;;;;;13.86;24.18;93810.38;5056018;28;20499;-80
2022/03/07 01:44:27;;;;;;;187.63;148.35;;;;;;;13.87;24.56;93816.53;5047134;28;20044;-80
2022/03/07 01:46:53;;;;;;;188.10;151.40;;;;;;;13.85;24.59;93809.63;5064880;28;20063;-80
2022/03/07 01:49:19;;;;;;;186.85;149.27;;;;;;;13.85;24.66;93811.56;5066738;28;20044;-80
2022/03/07 01:51:46;;;;;;;187.68;150.43;;;;;;;13.87;24.59;93811.16;5050277;28;20574;-80
2022/03/07 01:54:15;;;;;;;188.85;150.70;;;;;;;13.84;24.43;93808.13;5069922;28;20506;-80
2022/03/07 01:56:46;;;;;;;187.32;149.43;;;;;;;13.85;24.68;93808.88;5033826;28;20053;-81
2022/03/07 01:59:20;;;;;;;191.45;152.48;;;;;;;13.84;24.34;93805.44;5052134;28;20112;-80
2022/03/07 02:01:46;;;;;;;188.38;149.55;;;;;;;13.84;24.33;93813.50;5047002;28;20048;-81
2022/03/07 02:04:12;;;;;;;189.25;150.63;;;;;;;13.84;24.49;93808.13;5065815;28;20032;-80
2022/03/07 02:06:38;;;;;;;187.38;150.63;;;;;;;13.85;24.63;93806.94;5064400;28;20787;-80
2022/03/07 02:09:05;;;;;;;187.82;150.27;;;;;;;13.85;24.56;93804.25;5066244;28;20508;-80
2022/03/07 02:11:32;;;;;;;188.68;149.88;;;;;;;13.85;24.49;93812.31;5050758;28;20052;-81
2022/03/07 02:13:58;;;;;;;187.05;148.68;;;;;;;13.84;24.43;93810.06;5053877;28;20048;-80
2022/03/07 02:16:24;;;;;;;189.45;150.98;;;;;;;13.85;24.33;93804.25;5058084;28;20064;-80
2022/03/07 02:18:51;;;;;;;190.13;151.98;;;;;;;13.84;24.34;93808.13;5071656;28;20054;-80
2022/03/07 02:21:19;;;;;;;188.80;151.75;;;;;;;13.84;24.59;93802.75;5068028;28;20044;-80
2022/03/07 02:23:45;;;;;;;190.05;151.38;;;;;;;13.81;24.68;93800.19;5063198;28;20033;-80
2022/03/07 02:26:15;;;;;;;189.48;150.63;;;;;;;13.84;24.74;93804.69;5069016;28;20048;-80
2022/03/07 02:28:43;;;;;;;187.55;149.48;;;;;;;13.82;24.27;93797.06;5053809;28;20048;-80
2022/03/07 02:31:10;;;;;;;190.45;153.00;;;;;;;13.85;24.50;93795.44;5050815;28;20041;-80
2022/03/07 02:33:36;;;;;;;186.38;147.68;;;;;;;13.83;24.63;93795.88;5049133;28;20041;-80
2022/03/07 02:36:03;;;;;;;190.15;152.50;;;;;;;13.84;24.48;93791.25;5069215;28;20426;-80
2022/03/07 02:38:29;;;;;;;191.57;152.77;;;;;;;13.84;24.38;93791.25;5065868;28;20553;-80
2022/03/07 02:40:55;;;;;;;190.73;152.85;;;;;;;13.83;24.49;93787.06;5067899;28;20040;-81
2022/03/07 02:43:21;;;;;;;186.15;148.98;;;;;;;13.83;24.60;93789.75;5069592;28;20036;-80
2022/03/07 02:45:47;;;;;;;185.02;149.15;;;;;;;13.84;24.41;93793.94;5053440;28;20102;-80
2022/03/07 02:48:13;;;;;;;185.05;148.18;;;;;;;13.81;24.67;93790.19;5050889;28;20705;-80
2022/03/07 02:50:39;;;;;;;192.05;153.77;;;;;;;13.80;24.57;93785.97;5049793;28;20097;-80
2022/03/07 02:53:05;;;;;;;187.55;149.88;;;;;;;13.82;24.50;93786.31;5070052;28;20155;-80
2022/03/07 02:55:31;;;;;;;196.30;155.52;;;;;;;13.83;24.35;93792.44;5066321;28;20578;-80
2022/03/07 02:57:59;;;;;;;190.15;150.27;;;;;;;13.82;24.63;93794.38;5069176;28;20044;-80
2022/03/07 03:00:25;;;;;;;190.95;152.77;;;;;;;13.80;24.62;93785.97;5069831;28;20036;-80
2022/03/07 03:02:51;;;;;;;185.55;148.23;;;;;;;13.80;24.55;93795.97;5055081;28;20471;-80
2022/03/07 03:05:16;;;;;;;188.60;150.68;;;;;;;13.80;24.68;93798.66;5050534;28;20050;-80
2022/03/07 03:07:42;;;;;;;191.25;153.80;;;;;;;13.80;24.53;93799.44;5046369;28;20056;-80
2022/03/07 03:10:08;;;;;;;189.88;152.02;;;;;;;13.81;24.44;93798.25;5068129;28;20068;-81
2022/03/07 03:12:34;;;;;;;189.43;150.95;;;;;;;13.83;24.70;93801.25;5070527;28;20044;-81
2022/03/07 03:15:00;;;;;;;189.02;152.27;;;;;;;13.84;24.66;93802.00;5045420;28;20423;-80
2022/03/07 03:17:26;;;;;;;189.68;151.50;;;;;;;13.84;24.29;93802.75;5045390;28;20044;-79
2022/03/07 03:19:53;;;;;;;191.90;153.13;;;;;;;13.84;24.45;93799.31;5068492;28;20040;-79
2022/03/07 03:22:19;;;;;;;191.27;153.60;;;;;;;13.84;24.59;93797.38;5067988;28;20048;-80
2022/03/07 03:24:47;;;;;;;188.32;150.70;;;;;;;13.83;24.36;93797.81;5047063;28;20040;-79
2022/03/07 03:27:12;;;;;;;187.98;151.23;;;;;;;13.84;24.68;93807.38;5051649;28;20110;-79
2022/03/07 03:29:39;;;;;;;190.00;151.65;;;;;;;13.84;24.35;93802.00;5046926;28;20120;-79
2022/03/07 03:32:05;;;;;;;197.38;156.48;;;;;;;13.83;24.59;93806.63;5067500;28;20131;-79
2022/03/07 03:34:31;;;;;;;187.80;150.07;;;;;;;13.84;24.59;93805.44;5049020;28;20079;-79
2022/03/07 03:36:56;;;;;;;189.85;152.13;;;;;;;13.82;24.68;93807.81;5067694;28;20045;-79
2022/03/07 03:39:22;;;;;;;190.82;151.82;;;;;;;13.83;24.32;93801.25;5066080;28;20040;-79
2022/03/07 03:41:47;;;;;;;187.85;149.27;;;;;;;13.82;24.41;93799.00;5063222;28;20043;-79
2022/03/07 03:44:13;;;;;;;190.18;150.95;;;;;;;13.84;24.26;93810.06;5061023;28;20044;-79
2022/03/07 03:46:39;;;;;;;189.10;152.18;;;;;;;13.83;24.57;93811.25;5051894;28;20044;-79
2022/03/07 03:49:05;;;;;;;190.73;152.18;;;;;;;13.81;24.43;93813.63;5069080;28;20124;-79
2022/03/07 03:51:34;;;;;;;189.80;149.75;;;;;;;13.81;24.61;93809.00;5047207;28;20056;-79
2022/03/07 03:54:00;;;;;;;186.88;149.57;;;;;;;13.80;24.43;93810.19;5051152;28;20047;-79
2022/03/07 03:56:26;;;;;;;188.10;149.27;;;;;;;13.82;24.57;93815.88;5069369;28;20055;-79
2022/03/07 03:58:51;;;;;;;187.70;148.82;;;;;;;13.81;24.40;93813.63;5067946;28;20418;-79
2022/03/07 04:01:17;;;;;;;189.10;150.70;;;;;;;13.82;24.75;93818.56;5063395;28;20063;-78
2022/03/07 04:03:43;;;;;;;192.18;152.25;;;;;;;13.80;24.57;93812.88;5066640;28;20409;-78
2022/03/07 04:06:09;;;;;;;192.05;152.52;;;;;;;13.81;24.75;93813.63;5050996;28;20190;-79
2022/03/07 04:08:56;;;;;;;186.88;149.35;;;;;;;13.82;24.73;93812.44;5065843;28;20052;-78
2022/03/07 04:11:22;;;;;;;191.07;152.43;;;;;;;13.80;24.25;93815.56;5067871;28;20045;-79
2022/03/07 04:13:47;;;;;;;186.07;148.55;;;;;;;13.79;24.48;93805.97;5067849;28;20043;-79
2022/03/07 04:16:14;;;;;;;190.43;152.70;;;;;;;13.80;24.43;93820.94;5063606;28;20571;-78
2022/03/07 04:18:40;;;;;;;185.75;147.35;;;;;;;13.79;24.57;93816.72;5029238;28;20529;-79
2022/03/07 04:21:06;;;;;;;187.55;150.23;;;;;;;13.76;24.72;93817.59;5053168;28;20040;-79
2022/03/07 04:23:31;;;;;;;188.98;151.40;;;;;;;13.79;24.47;93821.34;5067881;28;20495;-78
2022/03/07 04:25:57;;;;;;;188.85;150.50;;;;;;;13.79;24.68;93821.34;5050896;28;20041;-78
2022/03/07 04:28:23;;;;;;;187.93;150.43;;;;;;;13.77;24.62;93818.34;5051238;28;20065;-79
2022/03/07 04:30:48;;;;;;;190.02;151.25;;;;;;;13.75;24.59;93813.41;5066251;28;20040;-78
2022/03/07 04:33:14;;;;;;;188.02;150.43;;;;;;;13.78;24.62;93822.53;5048104;28;20105;-78
2022/03/07 04:35:39;;;;;;;187.25;149.95;;;;;;;13.77;24.36;93818.34;5047398;28;20418;-79
2022/03/07 04:38:05;;;;;;;186.45;148.93;;;;;;;13.79;24.63;93829.41;5046048;28;20048;-78
2022/03/07 04:40:31;;;;;;;199.15;157.30;;;;;;;13.76;24.48;93820.28;5046093;28;20368;-78
2022/03/07 04:42:56;;;;;;;190.50;151.10;;;;;;;13.76;24.65;93812.22;5040013;28;20036;-78
2022/03/07 04:45:22;;;;;;;194.40;156.23;;;;;;;13.78;24.63;93823.28;5056093;28;20128;-79
2022/03/07 04:47:48;;;;;;;186.90;149.02;;;;;;;13.77;24.81;93818.34;5041586;28;20114;-78
2022/03/07 04:50:14;;;;;;;185.30;147.25;;;;;;;13.75;24.49;93815.34;5069871;28;20471;-79
2022/03/07 04:52:41;;;;;;;188.45;152.07;;;;;;;13.76;24.64;93808.78;5059665;28;20234;-78
2022/03/07 04:55:09;;;;;;;191.70;154.05;;;;;;;13.76;24.75;93820.28;5044895;28;20037;-78
2022/03/07 04:57:35;;;;;;;189.10;152.10;;;;;;;13.75;24.57;93816.09;5061647;28;20110;-79
2022/03/07 05:00:02;;;;;;;186.80;150.20;;;;;;;13.75;24.75;93810.72;5047767;28;20044;-79
2022/03/07 05:02:28;;;;;;;187.93;151.27;;;;;;;13.76;24.77;93808.78;5063018;28;20171;-79
2022/03/07 05:04:53;;;;;;;189.23;151.32;;;;;;;13.76;24.68;93816.84;5049998;28;20363;-78
2022/03/07 05:07:19;;;;;;;198.75;158.27;;;;;;;13.76;24.46;93808.78;5057527;28;20555;-79
2022/03/07 05:09:45;;;;;;;189.25;149.80;;;;;;;13.76;24.39;93811.47;5043466;28;20529;-78
2022/03/07 05:12:12;;;;;;;190.18;150.55;;;;;;;13.78;24.44;93809.09;5044354;28;20040;-78
2022/03/07 05:14:38;;;;;;;187.77;148.82;;;;;;;13.76;24.46;93809.53;5047268;28;20037;-79
2022/03/07 05:17:03;;;;;;;188.88;150.25;;;;;;;13.77;24.85;93808.34;5045651;28;20039;-78
2022/03/07 05:19:29;;;;;;;187.10;148.68;;;;;;;13.77;24.74;93792.22;5045968;28;20119;-81
2022/03/07 05:21:54;;;;;;;188.98;151.10;;;;;;;13.78;24.70;93803.72;5048267;28;20045;-78
2022/03/07 05:24:20;;;;;;;191.30;151.88;;;;;;;13.79;24.62;93789.09;5067960;28;20038;-78
2022/03/07 05:26:45;;;;;;;190.50;149.75;;;;;;;13.78;24.50;93796.41;5044852;28;20045;-79
2022/03/07 05:29:11;;;;;;;191.13;151.43;;;;;;;13.80;24.81;93793.28;5049948;28;20040;-79
2022/03/07 05:31:36;;;;;;;189.18;151.30;;;;;;;13.80;24.58;93799.44;5067994;28;20552;-79
2022/03/07 05:34:02;;;;;;;190.68;151.93;;;;;;;13.81;24.48;93794.81;5064830;28;20066;-79
2022/03/07 05:36:28;;;;;;;190.57;151.85;;;;;;;13.81;24.68;93795.56;5062501;28;20055;-80
2022/03/07 05:38:54;;;;;;;189.50;150.95;;;;;;;13.82;24.57;93805.13;5033963;28;20055;-79
2022/03/07 05:41:19;;;;;;;188.68;150.45;;;;;;;13.80;24.56;93806.75;5045399;28;20044;-79
2022/03/07 05:43:45;;;;;;;188.55;149.85;;;;;;;13.82;24.28;93809.75;5066949;28;20434;-79
2022/03/07 05:46:10;;;;;;;186.85;150.27;;;;;;;13.82;24.86;93807.81;5056140;28;20383;-79
2022/03/07 05:48:37;;;;;;;196.65;157.57;;;;;;;11.55;25.02;93805.78;5051578;28;20037;-78
2022/03/07 05:51:02;;;;;;;188.95;147.90;;;;;;;12.29;25.24;93808.66;5065769;28;20044;-80
2022/03/07 05:53:28;;;;;;;191.93;151.80;;;;;;;12.93;24.30;93803.53;5043665;28;20036;-80
2022/03/07 05:55:53;;;;;;;190.02;150.38;;;;;;;13.28;24.04;93805.22;5060856;28;20041;-79
2022/03/07 05:58:19;;;;;;;193.55;154.70;;;;;;;13.44;23.98;93812.44;5062100;28;20033;-79
2022/03/07 06:00:45;;;;;;;194.55;153.98;;;;;;;13.52;24.13;93808.38;5057744;28;20037;-79
2022/03/07 06:03:11;;;;;;;188.52;149.43;;;;;;;13.56;24.00;93803.63;5046603;28;20735;-79
2022/03/07 06:05:37;;;;;;;195.68;154.38;;;;;;;13.64;23.98;93801.50;5050231;28;20084;-79
2022/03/07 06:08:04;;;;;;;191.98;151.23;;;;;;;13.64;23.99;93806.88;5057776;28;20083;-79
2022/03/07 06:10:30;;;;;;;196.45;154.10;;;;;;;13.66;24.00;93813.28;5050827;28;20522;-79
2022/03/07 06:12:55;;;;;;;187.63;147.98;;;;;;;13.57;24.11;93821.25;5070016;28;20141;-79
2022/03/07 06:15:21;;;;;;;188.18;149.27;;;;;;;13.54;24.06;93826.75;5062308;28;20682;-79
2022/03/07 06:17:52;;;;;;;190.68;151.57;;;;;;;13.48;24.28;93829.22;5049773;28;20141;-79
2022/03/07 06:20:19;;;;;;;189.27;148.50;;;;;;;13.42;24.38;93831.66;5062521;28;20040;-79
2022/03/07 06:22:44;;;;;;;200.30;157.60;;;;;;;13.41;24.30;93834.78;5042673;28;20033;-79
2022/03/07 06:25:10;;;;;;;191.05;150.23;;;;;;;13.42;23.83;93836.28;5052991;28;20049;-79
2022/03/07 06:27:36;;;;;;;186.98;147.23;;;;;;;13.40;24.29;93825.97;5067526;28;20055;-78
2022/03/07 06:30:02;;;;;;;191.23;150.27;;;;;;;13.43;24.27;93833.19;5050800;28;20039;-79
2022/03/07 06:32:28;;;;;;;188.95;147.98;;;;;;;13.43;24.29;93830.50;5060540;28;20092;-80
2022/03/07 06:34:53;;;;;;;191.27;150.23;;;;;;;13.38;24.15;93817.59;5046717;28;20048;-80
2022/03/07 06:37:19;;;;;;;188.13;148.98;;;;;;;13.41;24.37;93822.09;5062084;28;20419;-79
2022/03/07 06:39:45;;;;;;;190.40;151.00;;;;;;;13.43;24.43;93819.00;5036188;28;20348;-79
2022/03/07 06:42:10;;;;;;;189.35;147.05;;;;;;;13.42;24.13;93820.19;5054021;28;20051;-78
2022/03/07 06:44:39;;;;;;;188.70;148.82;;;;;;;13.45;24.24;93825.44;5037519;28;20536;-79
2022/03/07 06:47:08;;;;;;;190.27;149.13;;;;;;;13.48;24.20;93816.53;5055002;28;20457;-78
2022/03/07 06:49:34;;;;;;;189.93;149.13;;;;;;;13.51;24.04;93822.97;5066537;28;20291;-79
2022/03/07 06:52:00;;;;;;;189.75;148.82;;;;;;;13.53;24.11;93828.69;5053876;28;20045;-79
2022/03/07 06:54:26;;;;;;;187.93;148.65;;;;;;;13.48;24.08;93826.53;5072317;28;20494;-80
2022/03/07 06:56:52;;;;;;;197.43;154.98;;;;;;;13.48;24.18;93831.91;5067319;28;20047;-79
2022/03/07 06:59:17;;;;;;;190.90;150.20;;;;;;;13.44;24.08;93842.00;5049881;28;20048;-79
2022/03/07 07:01:43;;;;;;;189.00;149.85;;;;;;;13.42;24.14;93855.84;5050344;28;20045;-79
2022/03/07 07:04:08;;;;;;;189.60;149.75;;;;;;;13.43;24.28;93860.03;5072677;28;20443;-79
2022/03/07 07:06:34;;;;;;;189.65;148.48;;;;;;;13.39;24.20;93864.75;5071653;28;20051;-79
2022/03/07 07:08:59;;;;;;;193.02;151.45;;;;;;;13.38;24.35;93862.50;5061737;28;20059;-79
2022/03/07 07:11:25;;;;;;;190.23;149.60;;;;;;;13.22;24.46;93866.00;5052566;28;20619;-79
2022/03/07 07:13:51;;;;;;;195.90;150.63;;;;;;;13.14;24.32;93864.66;5070884;28;20043;-79
2022/03/07 07:16:16;;;;;;;191.10;149.15;;;;;;;13.03;24.44;93873.00;5041147;28;20041;-79
2022/03/07 07:18:42;;;;;;;190.52;147.75;;;;;;;13.11;24.28;93877.00;5058966;28;20037;-79
2022/03/07 07:21:08;;;;;;;188.25;147.57;;;;;;;13.29;23.96;93873.13;5068370;28;20040;-80
2022/03/07 07:23:34;;;;;;;191.38;150.50;;;;;;;13.36;24.39;93880.97;5061938;28;20499;-80
2022/03/07 07:26:00;;;;;;;190.38;149.23;;;;;;;13.41;24.08;93875.06;5069610;28;20045;-79
2022/03/07 07:28:47;;;;;;;;;;;;;;;;;;;;;
2022/03/07 07:31:15;;;;;;;189.05;146.73;;;;;;;13.50;23.80;93867.91;5070986;28;20462;-84
2022/03/07 07:33:40;;;;;;;191.70;150.20;;;;;;;13.59;24.10;93867.28;5072407;28;20119;-84
2022/03/07 07:36:12;;;;;;;192.77;151.82;;;;;;;13.60;23.83;93874.16;5034804;28;20093;-85
2022/03/07 07:38:38;;;;;;;189.83;149.20;;;;;;;13.62;24.17;93871.78;5050823;28;20066;-84
2022/03/07 07:41:04;;;;;;;191.73;149.80;;;;;;;13.56;24.26;93867.38;5031533;28;20049;-84
2022/03/07 07:43:35;;;;;;;192.13;151.75;;;;;;;13.54;24.29;93877.78;5062128;28;20123;-85
2022/03/07 07:46:03;;;;;;;185.90;144.57;;;;;;;13.52;24.26;93876.28;5053054;28;20852;-85
2022/03/07 07:48:29;;;;;;;188.23;146.73;;;;;;;13.48;24.24;93872.94;5050125;28;20411;-85
2022/03/07 07:50:55;;;;;;;186.93;146.95;;;;;;;13.50;23.93;93869.81;5047697;28;20063;-86
2022/03/07 07:53:20;;;;;;;188.48;147.55;;;;;;;13.58;24.23;93881.13;5069926;28;20450;-84
2022/03/07 07:55:46;;;;;;;190.70;149.68;;;;;;;13.44;24.05;93883.03;5034310;28;20563;-85
2022/03/07 07:58:13;;;;;;;190.45;150.50;;;;;;;13.42;24.02;93890.75;5052948;28;20048;-85
2022/03/07 08:00:38;;;;;;;199.73;156.90;;;;;;;13.46;24.38;93888.72;5053116;28;20047;-85
2022/03/07 08:03:04;;;;;;;190.98;151.30;;;;;;;13.55;24.19;93890.03;5069436;28;20036;-85
2022/03/07 08:05:29;;;;;;;187.50;146.27;;;;;;;13.56;24.12;93894.25;5054139;28;20064;-85
2022/03/07 08:07:55;;;;;;;189.05;147.73;;;;;;;13.51;24.16;93888.22;5047828;28;20041;-85
2022/03/07 08:10:27;;;;;;;190.93;150.27;;;;;;;13.53;24.03;93885.09;5066306;28;20451;-92
2022/03/07 08:12:54;;;;;;;193.35;150.43;;;;;;;13.60;24.31;93887.59;5043464;28;20123;-84
2022/03/07 08:15:20;;;;;;;189.95;149.35;;;;;;;13.64;24.33;93884.78;5030489;28;20053;-85
2022/03/07 08:17:50;;;;;;;193.80;152.70;;;;;;;13.64;23.94;93900.91;5046353;28;20122;-84
2022/03/07 08:20:17;;;;;;;190.90;150.35;;;;;;;13.43;24.29;93908.38;5050248;28;20509;-84
2022/03/07 08:22:43;;;;;;;190.85;150.40;;;;;;;13.40;24.42;93906.56;5065248;28;20045;-84
2022/03/07 08:25:10;;;;;;;189.27;148.00;;;;;;;13.46;24.26;93899.47;5048892;28;20155;-85
2022/03/07 08:27:36;;;;;;;188.88;150.05;;;;;;;13.55;24.29;93895.41;5049372;28;20037;-84
2022/03/07 08:30:04;;;;;;;190.10;149.07;;;;;;;13.62;24.21;93903.28;5051467;28;20634;-84
2022/03/07 08:32:30;;;;;;;188.98;147.95;;;;;;;13.57;23.92;93907.25;5070548;28;20124;-85
2022/03/07 08:34:57;;;;;;;191.85;150.07;;;;;;;13.55;24.01;93909.59;5050495;28;20056;-85
2022/03/07 08:37:26;;;;;;;193.77;152.75;;;;;;;13.50;24.29;93916.25;5051466;28;20626;-85
2022/03/07 08:39:52;;;;;;;189.20;147.38;;;;;;;13.52;24.20;93916.59;5060636;28;20037;-84
2022/03/07 08:42:19;;;;;;;190.20;150.55;;;;;;;13.45;24.22;93913.34;5051039;28;20097;-84
2022/03/07 08:44:45;;;;;;;189.77;150.10;;;;;;;13.48;24.33;93907.13;5050851;28;20048;-85
2022/03/07 08:47:11;;;;;;;192.20;151.23;;;;;;;13.43;24.43;93910.31;5050077;28;20045;-85
2022/03/07 08:49:38;;;;;;;191.88;149.25;;;;;;;13.44;24.28;93909.16;5051696;28;20051;-84
2022/03/07 08:52:04;;;;;;;192.57;151.65;;;;;;;13.47;23.92;93910.97;5070836;28;20043;-84
2022/03/07 08:54:30;;;;;;;190.63;150.55;;;;;;;13.44;24.58;93909.16;5048982;28;20522;-84
2022/03/07 08:56:55;;;;;;;189.73;149.98;;;;;;;13.35;24.23;93904.38;5067134;28;20044;-84
2022/03/07 08:59:21;;;;;;;189.85;149.48;;;;;;;13.37;24.09;93903.97;5070786;28;20072;-84
2022/03/07 09:01:46;;;;;;;190.20;149.60;;;;;;;13.53;24.36;93909.28;5069285;28;20113;-84
2022/03/07 09:04:12;;;;;;;189.07;148.50;;;;;;;13.66;24.20;93911.97;5070756;28;20114;-83
2022/03/07 09:06:37;;;;;;;190.23;149.23;;;;;;;13.68;23.88;93925.72;5052426;28;20051;-82
2022/03/07 09:09:03;;;;;;;184.55;144.63;;;;;;;13.64;23.99;93919.72;5046612;28;20039;-82
2022/03/07 09:11:29;;;;;;;192.65;151.73;;;;;;;13.59;24.13;93923.69;5057918;28;20585;-83
2022/03/07 09:13:55;;;;;;;188.68;149.13;;;;;;;13.56;24.15;93926.47;5064046;28;20111;-86
2022/03/07 09:16:22;;;;;;;192.73;152.48;;;;;;;13.46;24.19;93928.28;5050363;28;20544;-85
2022/03/07 09:18:47;;;;;;;192.07;151.32;;;;;;;13.34;24.26;93924.38;5052882;28;20044;-85
2022/03/07 09:21:13;;;;;;;190.23;150.23;;;;;;;13.34;24.24;93923.63;5053630;28;20044;-85
2022/03/07 09:23:40;;;;;;;192.40;150.50;;;;;;;13.26;24.28;93930.34;5070947;28;20043;-85
2022/03/07 09:26:09;;;;;;;188.80;149.82;;;;;;;13.18;23.99;93927.09;5049176;28;20045;-85
2022/03/07 09:28:35;;;;;;;188.07;147.43;;;;;;;13.21;24.06;93925.50;5039792;28;20051;-85
2022/03/07 09:31:03;;;;;;;189.05;147.15;;;;;;;13.36;24.04;93940.81;5045165;28;20044;-86
2022/03/07 09:33:35;;;;;;;188.70;147.32;;;;;;;13.40;23.87;93936.09;5052878;28;20044;-85
2022/03/07 09:36:00;;;;;;;190.23;149.15;;;;;;;13.45;24.12;93940.94;5046000;28;20148;-84
2022/03/07 09:38:28;;;;;;;194.90;152.55;;;;;;;13.41;24.04;93940.28;5037424;28;20098;-84
2022/03/07 09:40:54;;;;;;;190.18;148.38;;;;;;;13.41;24.00;93936.84;5045100;28;20508;-85
2022/03/07 09:43:20;;;;;;;195.70;154.55;;;;;;;13.48;24.19;93934.72;5065323;28;20037;-85
2022/03/07 09:45:46;;;;;;;189.93;147.00;;;;;;;13.54;24.11;93945.72;5048049;28;20048;-85
2022/03/07 09:48:14;;;;;;;191.65;150.63;;;;;;;13.54;24.05;93947.66;5034985;28;20060;-84
2022/03/07 09:50:44;;;;;;;198.43;154.15;;;;;;;13.46;24.06;93949.75;5039255;28;20041;-84
2022/03/07 09:53:10;;;;;;;189.77;148.95;;;;;;;13.43;24.08;93948.69;5061625;28;20049;-84
2022/03/07 09:55:36;;;;;;;190.18;148.02;;;;;;;13.44;23.96;93957.50;5047691;28;20391;-85
2022/03/07 09:58:05;;;;;;;188.90;146.57;;;;;;;13.51;24.20;93951.94;5038271;28;20048;-84
2022/03/07 10:00:30;;;;;;;200.57;158.65;;;;;;;13.61;23.95;93966.25;5048005;28;20139;-84
2022/03/07 10:02:59;;;;;;;193.07;151.07;;;;;;;13.58;24.21;93959.03;5039352;28;20033;-83
2022/03/07 10:05:31;;;;;;;191.00;152.48;;;;;;;13.60;24.09;93970.88;5057006;28;20045;-85
2022/03/07 10:08:00;;;;;;;188.00;148.05;;;;;;;13.64;24.12;93970.78;5060600;28;20041;-85
2022/03/07 10:10:37;;;;;;;192.90;151.50;;;;;;;13.56;24.19;93969.47;5061904;28;20044;-84
2022/03/07 10:13:09;;;;;;;189.75;151.90;;;;;;;13.62;24.10;93971.19;5061631;28;20044;-83
2022/03/07 10:15:38;;;;;;;193.27;151.10;;;;;;;13.63;23.93;93980.03;5048167;28;20044;-83
2022/03/07 10:18:04;;;;;;;192.13;149.93;;;;;;;13.63;24.19;93980.03;5072581;28;20111;-83
2022/03/07 10:20:30;;;;;;;195.13;155.32;;;;;;;13.71;24.16;93976.69;5051258;28;20106;-84
2022/03/07 10:23:00;;;;;;;190.75;149.38;;;;;;;13.73;24.09;93981.63;5070584;28;20036;-84
2022/03/07 10:25:30;;;;;;;193.07;152.57;;;;;;;13.76;24.15;93986.16;5067229;28;20041;-84
2022/03/07 10:28:00;;;;;;;191.00;149.75;;;;;;;13.76;24.03;93976.16;5050298;28;20385;-84
2022/03/07 10:30:30;;;;;;;204.07;159.32;;;;;;;13.66;24.19;93979.16;5048241;28;20471;-85
2022/03/07 10:33:00;;;;;;;194.80;153.07;;;;;;;13.62;24.02;93983.88;5059164;28;20077;-86
2022/03/07 10:35:27;;;;;;;188.32;147.98;;;;;;;13.61;24.09;93979.69;5065339;28;20045;-84
2022/03/07 10:38:00;;;;;;;191.23;150.55;;;;;;;13.62;24.26;93983.88;5056127;28;20056;-84
2022/03/07 10:40:27;;;;;;;198.80;156.90;;;;;;;13.63;23.88;93982.72;5067251;28;20037;-86
2022/03/07 10:42:53;;;;;;;192.50;150.45;;;;;;;13.66;24.15;93985.28;5067950;28;21583;-83
2022/03/07 10:45:21;;;;;;;190.93;151.35;;;;;;;13.71;24.13;93979.38;5051396;28;20094;-84
2022/03/07 10:48:06;;;;;;;188.80;149.45;;;;;;;13.77;24.36;93985.72;5065323;28;20372;-84
2022/03/07 10:50:31;;;;;;;197.85;152.93;;;;;;;13.81;24.03;93983.69;5041249;28;20095;-83
2022/03/07 10:53:04;;;;;;;189.07;149.10;;;;;;;13.83;24.17;93978.66;5068504;28;20462;-83
2022/03/07 10:55:30;;;;;;;188.85;149.27;;;;;;;13.85;24.00;93980.91;5068163;28;20060;-84
2022/03/07 10:58:07;;;;;;;191.50;152.60;;;;;;;13.77;24.19;93982.28;5054068;28;20631;-83
2022/03/07 11:00:32;;;;;;;199.48;157.43;;;;;;;13.74;24.16;93978.53;5048423;28;20048;-83